Lida, Belarus
Current Conditions -  °F | °C
As of 9:50 AM on Wednesday 26 Nov 2014 (Local Time) from EYVI Reporting Station
Light Snow Light Snow  
Wind Chill: 19°   Ceiling: 600
Heat Index: 27°   Visibility: 1.6mi
Dew Point: 25°   Wind: 7mph
Humidity: 93%   Direction: 160°SSE
Pressure: 30.36"   Gusts: NA
Location:  53.89°N, 25.28°E
Report Text: EYVI 260750Z 16006KT 2600 -SN BR BKN006 OVC019 M03/M04 Q1028 R20/1///95 NOSIG
Loading
Personal Weather Stations






























Interactive Weather Map New forecast layout! Learn more

10-Day Weather Forecast

Advertisements
Track Severe Weather on mobile